sensor_id;sensor_type;location;lat;lon;timestamp;P1;durP1;ratioP1;P2;durP2;ratioP2
7687;SDS011;30781;48.154;11.554;2022-07-12T00:02:22;4.60;;;4.20;;
7687;SDS011;30781;48.154;11.554;2022-07-12T00:04:49;4.43;;;4.13;;
7687;SDS011;30781;48.154;11.554;2022-07-12T00:07:16;4.40;;;4.03;;
7687;SDS011;30781;48.154;11.554;2022-07-12T00:09:43;4.13;;;3.83;;
7687;SDS011;30781;48.154;11.554;2022-07-12T00:12:10;4.07;;;3.83;;
7687;SDS011;30781;48.154;11.554;2022-07-12T00:14:37;4.00;;;3.80;;
7687;SDS011;30781;48.154;11.554;2022-07-12T00:17:06;4.90;;;4.13;;
7687;SDS011;30781;48.154;11.554;2022-07-12T00:19:33;4.00;;;3.70;;
7687;SDS011;30781;48.154;11.554;2022-07-12T00:22:00;4.37;;;4.00;;
7687;SDS011;30781;48.154;11.554;2022-07-12T00:24:27;4.70;;;4.30;;
7687;SDS011;30781;48.154;11.554;2022-07-12T00:26:54;4.40;;;4.10;;
7687;SDS011;30781;48.154;11.554;2022-07-12T00:29:21;3.97;;;3.77;;
7687;SDS011;30781;48.154;11.554;2022-07-12T00:31:48;4.67;;;4.37;;
7687;SDS011;30781;48.154;11.554;2022-07-12T00:34:16;5.03;;;4.53;;
7687;SDS011;30781;48.154;11.554;2022-07-12T00:36:43;4.37;;;4.10;;
7687;SDS011;30781;48.154;11.554;2022-07-12T00:39:10;4.73;;;4.43;;
7687;SDS011;30781;48.154;11.554;2022-07-12T00:41:37;4.53;;;4.23;;
7687;SDS011;30781;48.154;11.554;2022-07-12T00:44:04;4.73;;;4.43;;
7687;SDS011;30781;48.154;11.554;2022-07-12T00:46:31;4.57;;;4.27;;
7687;SDS011;30781;48.154;11.554;2022-07-12T00:48:59;4.87;;;4.57;;
7687;SDS011;30781;48.154;11.554;2022-07-12T00:51:27;5.23;;;4.77;;
7687;SDS011;30781;48.154;11.554;2022-07-12T00:53:55;4.67;;;4.27;;
7687;SDS011;30781;48.154;11.554;2022-07-12T00:56:24;4.33;;;4.10;;
7687;SDS011;30781;48.154;11.554;2022-07-12T00:58:51;4.67;;;4.37;;
7687;SDS011;30781;48.154;11.554;2022-07-12T01:01:18;4.90;;;4.50;;
7687;SDS011;30781;48.154;11.554;2022-07-12T01:03:47;4.80;;;4.50;;
7687;SDS011;30781;48.154;11.554;2022-07-12T01:06:15;5.23;;;4.73;;
7687;SDS011;30781;48.154;11.554;2022-07-12T01:08:45;5.00;;;4.70;;
7687;SDS011;30781;48.154;11.554;2022-07-12T01:11:13;4.43;;;4.20;;
7687;SDS011;30781;48.154;11.554;2022-07-12T01:13:41;5.20;;;4.50;;
7687;SDS011;30781;48.154;11.554;2022-07-12T01:16:09;4.87;;;4.47;;
7687;SDS011;30781;48.154;11.554;2022-07-12T01:18:39;4.30;;;4.00;;
7687;SDS011;30781;48.154;11.554;2022-07-12T01:21:07;4.53;;;4.03;;
7687;SDS011;30781;48.154;11.554;2022-07-12T01:23:37;5.43;;;4.97;;
7687;SDS011;30781;48.154;11.554;2022-07-12T01:26:05;5.53;;;5.03;;
7687;SDS011;30781;48.154;11.554;2022-07-12T01:28:32;4.33;;;4.03;;
7687;SDS011;30781;48.154;11.554;2022-07-12T01:31:00;4.87;;;4.57;;
7687;SDS011;30781;48.154;11.554;2022-07-12T01:33:28;4.73;;;4.43;;
7687;SDS011;30781;48.154;11.554;2022-07-12T01:35:55;5.37;;;4.97;;
7687;SDS011;30781;48.154;11.554;2022-07-12T01:38:23;5.33;;;4.53;;
7687;SDS011;30781;48.154;11.554;2022-07-12T01:40:51;5.50;;;5.10;;
7687;SDS011;30781;48.154;11.554;2022-07-12T01:43:18;5.50;;;5.00;;
7687;SDS011;30781;48.154;11.554;2022-07-12T01:45:45;5.57;;;5.17;;
7687;SDS011;30781;48.154;11.554;2022-07-12T01:48:12;5.77;;;5.37;;
7687;SDS011;30781;48.154;11.554;2022-07-12T01:50:39;5.93;;;5.20;;
7687;SDS011;30781;48.154;11.554;2022-07-12T01:53:08;5.77;;;5.30;;
7687;SDS011;30781;48.154;11.554;2022-07-12T01:55:37;6.23;;;5.70;;
7687;SDS011;30781;48.154;11.554;2022-07-12T01:58:05;5.67;;;5.27;;
7687;SDS011;30781;48.154;11.554;2022-07-12T02:00:33;5.80;;;5.30;;
7687;SDS011;30781;48.154;11.554;2022-07-12T02:03:00;5.80;;;5.30;;
7687;SDS011;30781;48.154;11.554;2022-07-12T02:05:27;5.67;;;5.20;;
7687;SDS011;30781;48.154;11.554;2022-07-12T02:07:54;5.47;;;5.10;;
7687;SDS011;30781;48.154;11.554;2022-07-12T02:10:21;6.13;;;5.63;;
7687;SDS011;30781;48.154;11.554;2022-07-12T02:12:48;6.27;;;5.80;;
7687;SDS011;30781;48.154;11.554;2022-07-12T02:15:17;5.60;;;5.20;;
7687;SDS011;30781;48.154;11.554;2022-07-12T02:17:44;5.67;;;5.10;;
7687;SDS011;30781;48.154;11.554;2022-07-12T02:20:12;5.33;;;4.83;;
7687;SDS011;30781;48.154;11.554;2022-07-12T02:22:39;6.10;;;5.50;;
7687;SDS011;30781;48.154;11.554;2022-07-12T02:25:06;5.77;;;5.27;;
7687;SDS011;30781;48.154;11.554;2022-07-12T02:27:33;5.67;;;4.90;;
7687;SDS011;30781;48.154;11.554;2022-07-12T02:30:01;5.30;;;4.90;;
7687;SDS011;30781;48.154;11.554;2022-07-12T02:32:29;4.97;;;4.63;;
7687;SDS011;30781;48.154;11.554;2022-07-12T02:34:56;5.90;;;5.40;;
7687;SDS011;30781;48.154;11.554;2022-07-12T02:37:23;5.37;;;4.90;;
7687;SDS011;30781;48.154;11.554;2022-07-12T02:39:50;5.43;;;5.13;;
7687;SDS011;30781;48.154;11.554;2022-07-12T02:42:37;6.10;;;5.70;;
7687;SDS011;30781;48.154;11.554;2022-07-12T02:45:05;5.63;;;5.23;;
7687;SDS011;30781;48.154;11.554;2022-07-12T02:47:37;5.07;;;4.67;;
7687;SDS011;30781;48.154;11.554;2022-07-12T02:50:04;5.90;;;5.40;;
7687;SDS011;30781;48.154;11.554;2022-07-12T02:52:32;5.87;;;5.40;;
7687;SDS011;30781;48.154;11.554;2022-07-12T02:54:59;5.90;;;5.30;;
7687;SDS011;30781;48.154;11.554;2022-07-12T02:57:26;5.67;;;5.07;;
7687;SDS011;30781;48.154;11.554;2022-07-12T02:59:53;5.77;;;5.27;;
7687;SDS011;30781;48.154;11.554;2022-07-12T03:02:20;5.77;;;5.27;;
7687;SDS011;30781;48.154;11.554;2022-07-12T03:04:48;5.03;;;4.63;;
7687;SDS011;30781;48.154;11.554;2022-07-12T03:07:15;5.50;;;5.10;;
7687;SDS011;30781;48.154;11.554;2022-07-12T03:09:42;5.40;;;5.03;;
7687;SDS011;30781;48.154;11.554;2022-07-12T03:12:10;5.53;;;5.13;;
7687;SDS011;30781;48.154;11.554;2022-07-12T03:14:37;6.03;;;5.43;;
7687;SDS011;30781;48.154;11.554;2022-07-12T03:17:04;6.07;;;5.57;;
7687;SDS011;30781;48.154;11.554;2022-07-12T03:19:31;5.80;;;5.30;;
7687;SDS011;30781;48.154;11.554;2022-07-12T03:22:00;7.57;;;5.10;;
7687;SDS011;30781;48.154;11.554;2022-07-12T03:24:27;6.27;;;5.77;;
7687;SDS011;30781;48.154;11.554;2022-07-12T03:26:54;5.70;;;5.30;;
7687;SDS011;30781;48.154;11.554;2022-07-12T03:29:21;6.07;;;5.57;;
7687;SDS011;30781;48.154;11.554;2022-07-12T03:31:48;6.00;;;5.40;;
7687;SDS011;30781;48.154;11.554;2022-07-12T03:34:15;6.20;;;5.70;;
7687;SDS011;30781;48.154;11.554;2022-07-12T03:36:42;5.93;;;5.33;;
7687;SDS011;30781;48.154;11.554;2022-07-12T03:39:10;6.70;;;6.10;;
7687;SDS011;30781;48.154;11.554;2022-07-12T03:41:37;7.13;;;6.17;;
7687;SDS011;30781;48.154;11.554;2022-07-12T03:44:04;6.87;;;6.27;;
7687;SDS011;30781;48.154;11.554;2022-07-12T03:46:32;6.67;;;6.03;;
7687;SDS011;30781;48.154;11.554;2022-07-12T03:48:59;6.37;;;5.87;;
7687;SDS011;30781;48.154;11.554;2022-07-12T03:51:26;6.27;;;5.67;;
7687;SDS011;30781;48.154;11.554;2022-07-12T03:53:53;6.70;;;6.00;;
7687;SDS011;30781;48.154;11.554;2022-07-12T03:56:21;6.80;;;6.13;;
7687;SDS011;30781;48.154;11.554;2022-07-12T03:59:06;6.10;;;5.53;;
7687;SDS011;30781;48.154;11.554;2022-07-12T04:01:33;6.30;;;5.70;;
7687;SDS011;30781;48.154;11.554;2022-07-12T04:04:00;6.87;;;6.23;;
7687;SDS011;30781;48.154;11.554;2022-07-12T04:06:28;7.13;;;6.53;;
7687;SDS011;30781;48.154;11.554;2022-07-12T04:08:55;6.20;;;5.70;;
7687;SDS011;30781;48.154;11.554;2022-07-12T04:11:23;6.63;;;6.00;;
7687;SDS011;30781;48.154;11.554;2022-07-12T04:13:51;6.57;;;5.97;;
7687;SDS011;30781;48.154;11.554;2022-07-12T04:16:18;6.23;;;5.73;;
7687;SDS011;30781;48.154;11.554;2022-07-12T04:18:45;6.60;;;5.93;;
7687;SDS011;30781;48.154;11.554;2022-07-12T04:21:12;6.97;;;6.23;;
7687;SDS011;30781;48.154;11.554;2022-07-12T04:23:39;6.27;;;5.70;;
7687;SDS011;30781;48.154;11.554;2022-07-12T04:26:06;5.97;;;5.50;;
7687;SDS011;30781;48.154;11.554;2022-07-12T04:28:35;5.83;;;5.33;;
7687;SDS011;30781;48.154;11.554;2022-07-12T04:31:02;5.83;;;5.33;;
7687;SDS011;30781;48.154;11.554;2022-07-12T04:33:29;6.70;;;6.10;;
7687;SDS011;30781;48.154;11.554;2022-07-12T04:35:56;5.43;;;4.93;;
7687;SDS011;30781;48.154;11.554;2022-07-12T04:38:23;6.20;;;5.63;;
7687;SDS011;30781;48.154;11.554;2022-07-12T04:40:50;5.57;;;5.17;;
7687;SDS011;30781;48.154;11.554;2022-07-12T04:43:17;6.43;;;5.83;;
7687;SDS011;30781;48.154;11.554;2022-07-12T04:45:46;6.20;;;5.70;;
7687;SDS011;30781;48.154;11.554;2022-07-12T04:48:13;6.83;;;6.03;;
7687;SDS011;30781;48.154;11.554;2022-07-12T04:50:40;5.50;;;5.13;;
7687;SDS011;30781;48.154;11.554;2022-07-12T04:53:07;6.87;;;6.27;;
7687;SDS011;30781;48.154;11.554;2022-07-12T04:55:34;5.77;;;5.33;;
7687;SDS011;30781;48.154;11.554;2022-07-12T04:58:02;6.27;;;5.77;;
7687;SDS011;30781;48.154;11.554;2022-07-12T05:00:29;5.97;;;5.47;;
7687;SDS011;30781;48.154;11.554;2022-07-12T05:02:58;6.67;;;6.10;;
7687;SDS011;30781;48.154;11.554;2022-07-12T05:05:25;6.17;;;5.57;;
7687;SDS011;30781;48.154;11.554;2022-07-12T05:07:52;6.20;;;5.60;;
7687;SDS011;30781;48.154;11.554;2022-07-12T05:10:19;6.67;;;6.00;;
7687;SDS011;30781;48.154;11.554;2022-07-12T05:12:46;8.70;;;5.73;;
7687;SDS011;30781;48.154;11.554;2022-07-12T05:15:13;7.07;;;6.07;;
7687;SDS011;30781;48.154;11.554;2022-07-12T05:17:40;7.53;;;5.93;;
7687;SDS011;30781;48.154;11.554;2022-07-12T05:20:09;5.87;;;5.47;;
7687;SDS011;30781;48.154;11.554;2022-07-12T05:22:36;5.67;;;5.17;;
7687;SDS011;30781;48.154;11.554;2022-07-12T05:25:04;5.33;;;4.90;;
7687;SDS011;30781;48.154;11.554;2022-07-12T05:27:31;5.93;;;4.97;;
7687;SDS011;30781;48.154;11.554;2022-07-12T05:29:58;5.33;;;4.90;;
7687;SDS011;30781;48.154;11.554;2022-07-12T05:32:25;6.73;;;5.23;;
7687;SDS011;30781;48.154;11.554;2022-07-12T05:34:52;6.50;;;5.50;;
7687;SDS011;30781;48.154;11.554;2022-07-12T05:37:21;7.47;;;5.83;;
7687;SDS011;30781;48.154;11.554;2022-07-12T05:39:50;10.73;;;5.40;;
7687;SDS011;30781;48.154;11.554;2022-07-12T05:42:17;5.43;;;4.47;;
7687;SDS011;30781;48.154;11.554;2022-07-12T05:44:44;6.63;;;4.10;;
7687;SDS011;30781;48.154;11.554;2022-07-12T05:47:11;3.77;;;3.43;;
7687;SDS011;30781;48.154;11.554;2022-07-12T05:49:38;3.13;;;2.97;;
7687;SDS011;30781;48.154;11.554;2022-07-12T05:52:06;7.07;;;3.40;;
7687;SDS011;30781;48.154;11.554;2022-07-12T05:54:52;3.00;;;2.53;;
7687;SDS011;30781;48.154;11.554;2022-07-12T05:57:19;3.30;;;3.10;;
7687;SDS011;30781;48.154;11.554;2022-07-12T05:59:46;3.00;;;2.83;;
7687;SDS011;30781;48.154;11.554;2022-07-12T06:02:13;2.40;;;2.30;;
7687;SDS011;30781;48.154;11.554;2022-07-12T06:04:40;3.33;;;3.13;;
7687;SDS011;30781;48.154;11.554;2022-07-12T06:07:07;3.47;;;3.17;;
7687;SDS011;30781;48.154;11.554;2022-07-12T06:09:34;3.40;;;2.87;;
7687;SDS011;30781;48.154;11.554;2022-07-12T06:12:03;2.60;;;2.47;;
7687;SDS011;30781;48.154;11.554;2022-07-12T06:14:31;3.00;;;2.80;;
7687;SDS011;30781;48.154;11.554;2022-07-12T06:16:58;2.50;;;2.30;;
7687;SDS011;30781;48.154;11.554;2022-07-12T06:19:26;2.13;;;2.03;;
7687;SDS011;30781;48.154;11.554;2022-07-12T06:21:53;3.53;;;2.58;;
7687;SDS011;30781;48.154;11.554;2022-07-12T06:24:20;2.70;;;2.13;;
7687;SDS011;30781;48.154;11.554;2022-07-12T06:26:47;2.50;;;2.30;;
7687;SDS011;30781;48.154;11.554;2022-07-12T06:29:15;2.60;;;2.40;;
7687;SDS011;30781;48.154;11.554;2022-07-12T06:31:42;2.55;;;2.30;;
7687;SDS011;30781;48.154;11.554;2022-07-12T06:34:09;2.08;;;1.98;;
7687;SDS011;30781;48.154;11.554;2022-07-12T06:36:36;2.45;;;2.10;;
7687;SDS011;30781;48.154;11.554;2022-07-12T06:39:03;3.67;;;1.90;;
7687;SDS011;30781;48.154;11.554;2022-07-12T06:41:30;2.22;;;2.10;;
7687;SDS011;30781;48.154;11.554;2022-07-12T06:43:58;1.88;;;1.77;;
7687;SDS011;30781;48.154;11.554;2022-07-12T06:46:26;1.80;;;1.80;;
7687;SDS011;30781;48.154;11.554;2022-07-12T06:48:53;2.50;;;2.38;;
7687;SDS011;30781;48.154;11.554;2022-07-12T06:51:20;2.25;;;2.13;;
7687;SDS011;30781;48.154;11.554;2022-07-12T06:53:48;2.47;;;1.98;;
7687;SDS011;30781;48.154;11.554;2022-07-12T06:56:15;2.28;;;2.17;;
7687;SDS011;30781;48.154;11.554;2022-07-12T06:58:42;1.58;;;1.58;;
7687;SDS011;30781;48.154;11.554;2022-07-12T07:01:09;1.90;;;1.80;;
7687;SDS011;30781;48.154;11.554;2022-07-12T07:03:38;1.98;;;1.88;;
7687;SDS011;30781;48.154;11.554;2022-07-12T07:06:05;1.85;;;1.75;;
7687;SDS011;30781;48.154;11.554;2022-07-12T07:08:32;2.17;;;2.08;;
7687;SDS011;30781;48.154;11.554;2022-07-12T07:10:59;7.95;;;2.42;;
7687;SDS011;30781;48.154;11.554;2022-07-12T07:13:26;1.40;;;1.40;;
7687;SDS011;30781;48.154;11.554;2022-07-12T07:15:53;1.58;;;1.50;;
7687;SDS011;30781;48.154;11.554;2022-07-12T07:18:20;1.40;;;1.40;;
7687;SDS011;30781;48.154;11.554;2022-07-12T07:20:48;1.70;;;1.60;;
7687;SDS011;30781;48.154;11.554;2022-07-12T07:23:16;1.52;;;1.40;;
7687;SDS011;30781;48.154;11.554;2022-07-12T07:25:43;1.45;;;1.45;;
7687;SDS011;30781;48.154;11.554;2022-07-12T07:28:10;1.50;;;1.50;;
7687;SDS011;30781;48.154;11.554;2022-07-12T07:30:37;1.65;;;1.55;;
7687;SDS011;30781;48.154;11.554;2022-07-12T07:33:19;1.70;;;1.70;;
7687;SDS011;30781;48.154;11.554;2022-07-12T07:35:46;2.35;;;1.52;;
7687;SDS011;30781;48.154;11.554;2022-07-12T07:38:15;2.00;;;1.90;;
7687;SDS011;30781;48.154;11.554;2022-07-12T07:40:43;2.00;;;1.90;;
7687;SDS011;30781;48.154;11.554;2022-07-12T07:43:11;1.88;;;1.80;;
7687;SDS011;30781;48.154;11.554;2022-07-12T07:45:38;4.72;;;2.28;;
7687;SDS011;30781;48.154;11.554;2022-07-12T07:48:05;1.90;;;1.80;;
7687;SDS011;30781;48.154;11.554;2022-07-12T07:50:32;1.90;;;1.80;;
7687;SDS011;30781;48.154;11.554;2022-07-12T07:53:01;2.25;;;2.15;;
7687;SDS011;30781;48.154;11.554;2022-07-12T07:55:28;1.63;;;1.63;;
7687;SDS011;30781;48.154;11.554;2022-07-12T07:57:55;1.67;;;1.67;;
7687;SDS011;30781;48.154;11.554;2022-07-12T08:00:24;2.03;;;2.00;;
7687;SDS011;30781;48.154;11.554;2022-07-12T08:02:51;2.95;;;1.63;;
7687;SDS011;30781;48.154;11.554;2022-07-12T08:05:20;1.83;;;1.73;;
7687;SDS011;30781;48.154;11.554;2022-07-12T08:07:48;2.15;;;1.95;;
7687;SDS011;30781;48.154;11.554;2022-07-12T08:10:16;1.60;;;1.60;;
7687;SDS011;30781;48.154;11.554;2022-07-12T08:12:43;1.65;;;1.60;;
7687;SDS011;30781;48.154;11.554;2022-07-12T08:15:10;2.83;;;1.98;;
7687;SDS011;30781;48.154;11.554;2022-07-12T08:17:37;2.10;;;1.70;;
7687;SDS011;30781;48.154;11.554;2022-07-12T08:20:05;1.67;;;1.67;;
7687;SDS011;30781;48.154;11.554;2022-07-12T08:22:32;1.85;;;1.75;;
7687;SDS011;30781;48.154;11.554;2022-07-12T08:24:59;2.08;;;1.98;;
7687;SDS011;30781;48.154;11.554;2022-07-12T08:27:28;1.90;;;1.80;;
7687;SDS011;30781;48.154;11.554;2022-07-12T08:29:55;1.88;;;1.77;;
7687;SDS011;30781;48.154;11.554;2022-07-12T08:32:22;1.60;;;1.30;;
7687;SDS011;30781;48.154;11.554;2022-07-12T08:34:49;2.78;;;2.05;;
7687;SDS011;30781;48.154;11.554;2022-07-12T08:37:16;1.58;;;1.48;;
7687;SDS011;30781;48.154;11.554;2022-07-12T08:39:43;1.83;;;1.70;;
7687;SDS011;30781;48.154;11.554;2022-07-12T08:42:12;1.60;;;1.50;;
7687;SDS011;30781;48.154;11.554;2022-07-12T08:44:42;1.63;;;1.52;;
7687;SDS011;30781;48.154;11.554;2022-07-12T08:47:10;1.80;;;1.60;;
7687;SDS011;30781;48.154;11.554;2022-07-12T08:49:37;1.80;;;1.70;;
7687;SDS011;30781;48.154;11.554;2022-07-12T08:52:17;1.58;;;1.45;;
7687;SDS011;30781;48.154;11.554;2022-07-12T08:54:51;1.40;;;1.40;;
7687;SDS011;30781;48.154;11.554;2022-07-12T08:57:27;2.72;;;2.10;;
7687;SDS011;30781;48.154;11.554;2022-07-12T08:59:59;2.13;;;1.98;;
7687;SDS011;30781;48.154;11.554;2022-07-12T09:02:27;3.80;;;1.98;;
7687;SDS011;30781;48.154;11.554;2022-07-12T09:05:07;1.67;;;1.60;;
7687;SDS011;30781;48.154;11.554;2022-07-12T09:07:35;2.25;;;1.60;;
7687;SDS011;30781;48.154;11.554;2022-07-12T09:10:03;3.33;;;1.50;;
7687;SDS011;30781;48.154;11.554;2022-07-12T09:12:32;1.33;;;1.23;;
7687;SDS011;30781;48.154;11.554;2022-07-12T09:15:17;2.67;;;1.55;;
7687;SDS011;30781;48.154;11.554;2022-07-12T09:17:46;2.30;;;1.70;;
7687;SDS011;30781;48.154;11.554;2022-07-12T09:20:22;2.40;;;1.90;;
7687;SDS011;30781;48.154;11.554;2022-07-12T09:22:54;3.15;;;2.92;;
7687;SDS011;30781;48.154;11.554;2022-07-12T09:25:22;1.85;;;1.75;;
7687;SDS011;30781;48.154;11.554;2022-07-12T09:27:50;1.52;;;1.52;;
7687;SDS011;30781;48.154;11.554;2022-07-12T09:30:21;2.17;;;1.60;;
7687;SDS011;30781;48.154;11.554;2022-07-12T09:32:49;1.30;;;1.20;;
7687;SDS011;30781;48.154;11.554;2022-07-12T09:35:34;1.63;;;1.42;;
7687;SDS011;30781;48.154;11.554;2022-07-12T09:38:19;2.90;;;2.70;;
7687;SDS011;30781;48.154;11.554;2022-07-12T09:40:46;1.92;;;1.83;;
7687;SDS011;30781;48.154;11.554;2022-07-12T09:43:14;1.67;;;1.67;;
7687;SDS011;30781;48.154;11.554;2022-07-12T09:45:43;2.08;;;1.90;;
7687;SDS011;30781;48.154;11.554;2022-07-12T09:48:12;1.75;;;1.50;;
7687;SDS011;30781;48.154;11.554;2022-07-12T09:50:40;1.30;;;1.30;;
7687;SDS011;30781;48.154;11.554;2022-07-12T09:53:10;1.55;;;1.40;;
7687;SDS011;30781;48.154;11.554;2022-07-12T09:55:40;1.92;;;1.83;;
7687;SDS011;30781;48.154;11.554;2022-07-12T09:58:09;1.60;;;1.60;;
7687;SDS011;30781;48.154;11.554;2022-07-12T10:00:39;2.78;;;2.28;;
7687;SDS011;30781;48.154;11.554;2022-07-12T10:03:08;1.40;;;1.33;;
7687;SDS011;30781;48.154;11.554;2022-07-12T10:05:38;1.65;;;1.55;;
7687;SDS011;30781;48.154;11.554;2022-07-12T10:08:07;1.73;;;1.63;;
7687;SDS011;30781;48.154;11.554;2022-07-12T10:10:35;1.30;;;1.30;;
7687;SDS011;30781;48.154;11.554;2022-07-12T10:13:02;1.88;;;1.83;;
7687;SDS011;30781;48.154;11.554;2022-07-12T10:15:29;1.80;;;1.70;;
7687;SDS011;30781;48.154;11.554;2022-07-12T10:17:59;1.80;;;1.70;;
7687;SDS011;30781;48.154;11.554;2022-07-12T10:20:43;1.60;;;1.60;;
7687;SDS011;30781;48.154;11.554;2022-07-12T10:23:33;1.50;;;1.40;;
7687;SDS011;30781;48.154;11.554;2022-07-12T10:26:02;1.85;;;1.75;;
7687;SDS011;30781;48.154;11.554;2022-07-12T10:28:54;3.42;;;2.90;;
7687;SDS011;30781;48.154;11.554;2022-07-12T10:31:23;2.50;;;1.90;;
7687;SDS011;30781;48.154;11.554;2022-07-12T10:33:59;1.60;;;1.60;;
7687;SDS011;30781;48.154;11.554;2022-07-12T10:39:46;1.58;;;1.58;;
7687;SDS011;30781;48.154;11.554;2022-07-12T10:42:37;1.45;;;1.35;;
7687;SDS011;30781;48.154;11.554;2022-07-12T10:45:09;1.33;;;1.33;;
7687;SDS011;30781;48.154;11.554;2022-07-12T10:47:54;1.17;;;1.17;;
7687;SDS011;30781;48.154;11.554;2022-07-12T10:53:26;1.83;;;1.73;;
7687;SDS011;30781;48.154;11.554;2022-07-12T10:56:10;1.50;;;1.40;;
7687;SDS011;30781;48.154;11.554;2022-07-12T10:58:40;1.42;;;1.42;;
7687;SDS011;30781;48.154;11.554;2022-07-12T11:01:09;1.42;;;1.30;;
7687;SDS011;30781;48.154;11.554;2022-07-12T11:03:39;1.52;;;1.42;;
7687;SDS011;30781;48.154;11.554;2022-07-12T11:06:08;1.83;;;1.73;;
7687;SDS011;30781;48.154;11.554;2022-07-12T11:08:49;1.30;;;1.30;;
7687;SDS011;30781;48.154;11.554;2022-07-12T11:11:20;3.22;;;2.95;;
7687;SDS011;30781;48.154;11.554;2022-07-12T11:13:47;1.67;;;1.60;;
7687;SDS011;30781;48.154;11.554;2022-07-12T11:16:15;1.70;;;1.40;;
7687;SDS011;30781;48.154;11.554;2022-07-12T11:18:43;1.10;;;1.10;;
7687;SDS011;30781;48.154;11.554;2022-07-12T11:21:10;1.10;;;1.10;;
7687;SDS011;30781;48.154;11.554;2022-07-12T11:23:38;1.42;;;1.42;;
7687;SDS011;30781;48.154;11.554;2022-07-12T11:26:07;2.88;;;1.65;;
7687;SDS011;30781;48.154;11.554;2022-07-12T11:28:36;1.60;;;1.50;;
7687;SDS011;30781;48.154;11.554;2022-07-12T11:31:05;1.50;;;1.40;;
7687;SDS011;30781;48.154;11.554;2022-07-12T11:33:33;1.27;;;1.27;;
7687;SDS011;30781;48.154;11.554;2022-07-12T11:36:03;2.40;;;2.05;;
7687;SDS011;30781;48.154;11.554;2022-07-12T11:38:33;1.30;;;1.25;;
7687;SDS011;30781;48.154;11.554;2022-07-12T11:41:01;1.10;;;1.10;;
7687;SDS011;30781;48.154;11.554;2022-07-12T11:43:29;2.13;;;2.03;;
7687;SDS011;30781;48.154;11.554;2022-07-12T11:45:58;1.50;;;1.50;;
7687;SDS011;30781;48.154;11.554;2022-07-12T11:48:27;1.25;;;1.25;;
7687;SDS011;30781;48.154;11.554;2022-07-12T11:50:59;1.60;;;1.50;;
7687;SDS011;30781;48.154;11.554;2022-07-12T11:53:28;1.50;;;1.40;;
7687;SDS011;30781;48.154;11.554;2022-07-12T11:55:55;1.70;;;1.60;;
7687;SDS011;30781;48.154;11.554;2022-07-12T11:58:23;1.42;;;1.30;;
7687;SDS011;30781;48.154;11.554;2022-07-12T12:00:51;1.70;;;1.60;;
7687;SDS011;30781;48.154;11.554;2022-07-12T12:03:21;1.00;;;1.00;;
7687;SDS011;30781;48.154;11.554;2022-07-12T12:05:49;2.05;;;1.20;;
7687;SDS011;30781;48.154;11.554;2022-07-12T12:08:17;1.33;;;1.00;;
7687;SDS011;30781;48.154;11.554;2022-07-12T12:10:52;1.00;;;1.00;;
7687;SDS011;30781;48.154;11.554;2022-07-12T12:13:20;1.02;;;1.02;;
7687;SDS011;30781;48.154;11.554;2022-07-12T12:15:49;2.08;;;1.90;;
7687;SDS011;30781;48.154;11.554;2022-07-12T12:18:26;1.08;;;1.00;;
7687;SDS011;30781;48.154;11.554;2022-07-12T12:20:57;1.42;;;1.33;;
7687;SDS011;30781;48.154;11.554;2022-07-12T12:23:25;2.20;;;1.85;;
7687;SDS011;30781;48.154;11.554;2022-07-12T12:25:53;1.20;;;1.20;;
7687;SDS011;30781;48.154;11.554;2022-07-12T12:28:43;1.20;;;1.20;;
7687;SDS011;30781;48.154;11.554;2022-07-12T12:31:11;1.50;;;1.35;;
7687;SDS011;30781;48.154;11.554;2022-07-12T12:33:41;2.83;;;1.40;;
7687;SDS011;30781;48.154;11.554;2022-07-12T12:36:16;0.88;;;0.88;;
7687;SDS011;30781;48.154;11.554;2022-07-12T12:38:45;1.42;;;1.15;;
7687;SDS011;30781;48.154;11.554;2022-07-12T12:41:14;4.95;;;1.38;;
7687;SDS011;30781;48.154;11.554;2022-07-12T12:43:41;1.48;;;1.48;;
7687;SDS011;30781;48.154;11.554;2022-07-12T12:46:09;1.13;;;1.02;;
7687;SDS011;30781;48.154;11.554;2022-07-12T12:48:36;2.20;;;1.08;;
7687;SDS011;30781;48.154;11.554;2022-07-12T12:51:05;2.92;;;1.25;;
7687;SDS011;30781;48.154;11.554;2022-07-12T12:53:33;1.33;;;1.10;;
7687;SDS011;30781;48.154;11.554;2022-07-12T12:56:04;1.40;;;1.17;;
7687;SDS011;30781;48.154;11.554;2022-07-12T12:58:32;1.30;;;1.08;;
7687;SDS011;30781;48.154;11.554;2022-07-12T13:00:59;1.55;;;0.98;;
7687;SDS011;30781;48.154;11.554;2022-07-12T13:03:26;0.82;;;0.82;;
7687;SDS011;30781;48.154;11.554;2022-07-12T13:05:54;1.60;;;1.33;;
7687;SDS011;30781;48.154;11.554;2022-07-12T13:08:22;3.22;;;2.03;;
7687;SDS011;30781;48.154;11.554;2022-07-12T13:10:49;1.23;;;1.10;;
7687;SDS011;30781;48.154;11.554;2022-07-12T13:13:31;4.32;;;1.95;;
7687;SDS011;30781;48.154;11.554;2022-07-12T13:15:58;1.73;;;1.60;;
7687;SDS011;30781;48.154;11.554;2022-07-12T13:18:26;1.75;;;1.20;;
7687;SDS011;30781;48.154;11.554;2022-07-12T13:20:53;0.90;;;0.90;;
7687;SDS011;30781;48.154;11.554;2022-07-12T13:23:21;1.20;;;1.20;;
7687;SDS011;30781;48.154;11.554;2022-07-12T13:25:48;1.00;;;1.00;;
7687;SDS011;30781;48.154;11.554;2022-07-12T13:28:15;1.63;;;1.52;;
7687;SDS011;30781;48.154;11.554;2022-07-12T13:30:42;1.92;;;1.27;;
7687;SDS011;30781;48.154;11.554;2022-07-12T13:33:09;1.00;;;1.00;;
7687;SDS011;30781;48.154;11.554;2022-07-12T13:35:36;0.88;;;0.88;;
7687;SDS011;30781;48.154;11.554;2022-07-12T13:38:04;1.08;;;1.00;;
7687;SDS011;30781;48.154;11.554;2022-07-12T13:40:32;0.90;;;0.90;;
7687;SDS011;30781;48.154;11.554;2022-07-12T13:42:59;2.83;;;1.10;;
7687;SDS011;30781;48.154;11.554;2022-07-12T13:45:26;3.15;;;1.55;;
7687;SDS011;30781;48.154;11.554;2022-07-12T13:47:53;1.17;;;1.17;;
7687;SDS011;30781;48.154;11.554;2022-07-12T13:50:21;1.15;;;1.15;;
7687;SDS011;30781;48.154;11.554;2022-07-12T13:52:49;1.23;;;1.20;;
7687;SDS011;30781;48.154;11.554;2022-07-12T13:55:17;1.35;;;1.05;;
7687;SDS011;30781;48.154;11.554;2022-07-12T13:57:45;0.95;;;0.95;;
7687;SDS011;30781;48.154;11.554;2022-07-12T14:00:14;1.00;;;1.00;;
7687;SDS011;30781;48.154;11.554;2022-07-12T14:02:43;1.13;;;1.13;;
7687;SDS011;30781;48.154;11.554;2022-07-12T14:05:11;1.17;;;1.00;;
7687;SDS011;30781;48.154;11.554;2022-07-12T14:07:40;1.83;;;1.08;;
7687;SDS011;30781;48.154;11.554;2022-07-12T14:10:08;0.93;;;0.93;;
7687;SDS011;30781;48.154;11.554;2022-07-12T14:12:37;0.98;;;0.98;;
7687;SDS011;30781;48.154;11.554;2022-07-12T14:15:07;1.10;;;1.10;;
7687;SDS011;30781;48.154;11.554;2022-07-12T14:18:01;2.08;;;1.35;;
7687;SDS011;30781;48.154;11.554;2022-07-12T14:20:31;2.20;;;1.73;;
7687;SDS011;30781;48.154;11.554;2022-07-12T14:22:59;2.97;;;1.63;;
7687;SDS011;30781;48.154;11.554;2022-07-12T14:25:26;1.05;;;1.00;;
7687;SDS011;30781;48.154;11.554;2022-07-12T14:27:53;1.55;;;1.45;;
7687;SDS011;30781;48.154;11.554;2022-07-12T14:30:22;1.50;;;1.40;;
7687;SDS011;30781;48.154;11.554;2022-07-12T14:32:49;4.03;;;3.83;;
7687;SDS011;30781;48.154;11.554;2022-07-12T14:35:16;1.15;;;1.13;;
7687;SDS011;30781;48.154;11.554;2022-07-12T14:37:44;1.23;;;1.13;;
7687;SDS011;30781;48.154;11.554;2022-07-12T14:40:11;1.67;;;1.30;;
7687;SDS011;30781;48.154;11.554;2022-07-12T14:42:38;1.45;;;1.00;;
7687;SDS011;30781;48.154;11.554;2022-07-12T14:45:07;1.20;;;1.20;;
7687;SDS011;30781;48.154;11.554;2022-07-12T14:47:35;2.53;;;1.20;;
7687;SDS011;30781;48.154;11.554;2022-07-12T14:50:03;2.13;;;1.42;;
7687;SDS011;30781;48.154;11.554;2022-07-12T14:52:32;2.67;;;1.20;;
7687;SDS011;30781;48.154;11.554;2022-07-12T14:55:00;3.33;;;1.40;;
7687;SDS011;30781;48.154;11.554;2022-07-12T14:57:27;2.35;;;1.30;;
7687;SDS011;30781;48.154;11.554;2022-07-12T14:59:54;0.88;;;0.80;;
7687;SDS011;30781;48.154;11.554;2022-07-12T15:02:21;1.25;;;1.25;;
7687;SDS011;30781;48.154;11.554;2022-07-12T15:04:50;1.38;;;1.08;;